sensor_id;sensor_type;location;lat;lon;timestamp;P1;durP1;ratioP1;P2;durP2;ratioP2
54157;SDS011;40065;49.894;10.358;2023-01-29T00:02:17;12.35;;;6.03;;
54157;SDS011;40065;49.894;10.358;2023-01-29T00:07:19;10.70;;;6.25;;
54157;SDS011;40065;49.894;10.358;2023-01-29T00:12:21;9.48;;;4.50;;
54157;SDS011;40065;49.894;10.358;2023-01-29T00:17:23;7.63;;;5.15;;
54157;SDS011;40065;49.894;10.358;2023-01-29T00:22:25;4.63;;;3.17;;
54157;SDS011;40065;49.894;10.358;2023-01-29T00:27:27;5.38;;;3.67;;
54157;SDS011;40065;49.894;10.358;2023-01-29T00:32:30;9.18;;;4.88;;
54157;SDS011;40065;49.894;10.358;2023-01-29T00:37:32;5.95;;;3.60;;
54157;SDS011;40065;49.894;10.358;2023-01-29T00:42:34;5.03;;;3.35;;
54157;SDS011;40065;49.894;10.358;2023-01-29T00:47:55;7.05;;;4.05;;
54157;SDS011;40065;49.894;10.358;2023-01-29T00:52:57;6.63;;;4.38;;
54157;SDS011;40065;49.894;10.358;2023-01-29T00:57:59;5.25;;;3.75;;
54157;SDS011;40065;49.894;10.358;2023-01-29T01:03:00;8.45;;;5.47;;
54157;SDS011;40065;49.894;10.358;2023-01-29T01:08:08;8.65;;;5.00;;
54157;SDS011;40065;49.894;10.358;2023-01-29T01:13:31;6.00;;;4.07;;
54157;SDS011;40065;49.894;10.358;2023-01-29T01:18:35;4.95;;;3.92;;
54157;SDS011;40065;49.894;10.358;2023-01-29T01:23:38;6.85;;;4.32;;
54157;SDS011;40065;49.894;10.358;2023-01-29T01:28:40;6.03;;;3.78;;
54157;SDS011;40065;49.894;10.358;2023-01-29T01:33:42;6.53;;;4.55;;
54157;SDS011;40065;49.894;10.358;2023-01-29T01:38:43;6.55;;;4.15;;
54157;SDS011;40065;49.894;10.358;2023-01-29T01:43:59;5.38;;;3.90;;
54157;SDS011;40065;49.894;10.358;2023-01-29T01:54:05;5.38;;;3.60;;
54157;SDS011;40065;49.894;10.358;2023-01-29T01:59:10;5.15;;;4.20;;
54157;SDS011;40065;49.894;10.358;2023-01-29T02:04:16;5.30;;;3.60;;
54157;SDS011;40065;49.894;10.358;2023-01-29T02:09:41;6.18;;;4.13;;
54157;SDS011;40065;49.894;10.358;2023-01-29T02:14:49;5.18;;;3.50;;
54157;SDS011;40065;49.894;10.358;2023-01-29T02:19:56;6.30;;;4.32;;
54157;SDS011;40065;49.894;10.358;2023-01-29T02:30:32;6.32;;;4.28;;
54157;SDS011;40065;49.894;10.358;2023-01-29T02:35:42;5.90;;;4.25;;
54157;SDS011;40065;49.894;10.358;2023-01-29T02:40:56;5.97;;;4.18;;
54157;SDS011;40065;49.894;10.358;2023-01-29T02:51:37;6.22;;;4.07;;
54157;SDS011;40065;49.894;10.358;2023-01-29T02:56:43;7.43;;;4.60;;
54157;SDS011;40065;49.894;10.358;2023-01-29T03:01:52;6.63;;;4.45;;
54157;SDS011;40065;49.894;10.358;2023-01-29T03:06:59;6.85;;;4.07;;
54157;SDS011;40065;49.894;10.358;2023-01-29T03:12:09;7.63;;;3.30;;
54157;SDS011;40065;49.894;10.358;2023-01-29T03:17:36;5.68;;;3.75;;
54157;SDS011;40065;49.894;10.358;2023-01-29T03:22:44;7.65;;;4.80;;
54157;SDS011;40065;49.894;10.358;2023-01-29T03:27:56;6.70;;;4.10;;
54157;SDS011;40065;49.894;10.358;2023-01-29T03:33:21;6.72;;;4.32;;
54157;SDS011;40065;49.894;10.358;2023-01-29T03:38:27;7.10;;;4.70;;
54157;SDS011;40065;49.894;10.358;2023-01-29T03:43:46;6.78;;;3.97;;
54157;SDS011;40065;49.894;10.358;2023-01-29T03:49:11;9.80;;;4.43;;
54157;SDS011;40065;49.894;10.358;2023-01-29T03:54:38;5.18;;;3.85;;
54157;SDS011;40065;49.894;10.358;2023-01-29T04:00:19;6.03;;;3.72;;
54157;SDS011;40065;49.894;10.358;2023-01-29T04:05:37;6.47;;;4.55;;
54157;SDS011;40065;49.894;10.358;2023-01-29T04:10:55;6.15;;;4.78;;
54157;SDS011;40065;49.894;10.358;2023-01-29T04:16:01;5.70;;;4.10;;
54157;SDS011;40065;49.894;10.358;2023-01-29T04:21:23;8.38;;;4.82;;
54157;SDS011;40065;49.894;10.358;2023-01-29T04:31:32;6.55;;;4.40;;
54157;SDS011;40065;49.894;10.358;2023-01-29T04:42:28;7.05;;;4.55;;
54157;SDS011;40065;49.894;10.358;2023-01-29T04:58:39;6.47;;;4.18;;
54157;SDS011;40065;49.894;10.358;2023-01-29T05:03:48;7.43;;;5.20;;
54157;SDS011;40065;49.894;10.358;2023-01-29T05:08:52;7.55;;;5.15;;
54157;SDS011;40065;49.894;10.358;2023-01-29T05:13:55;6.47;;;4.40;;
54157;SDS011;40065;49.894;10.358;2023-01-29T05:18:58;7.65;;;4.32;;
54157;SDS011;40065;49.894;10.358;2023-01-29T05:29:19;9.00;;;5.13;;
54157;SDS011;40065;49.894;10.358;2023-01-29T05:34:21;6.00;;;4.53;;
54157;SDS011;40065;49.894;10.358;2023-01-29T05:39:24;10.75;;;5.40;;
54157;SDS011;40065;49.894;10.358;2023-01-29T05:44:26;7.88;;;5.05;;
54157;SDS011;40065;49.894;10.358;2023-01-29T05:49:27;7.07;;;4.65;;
54157;SDS011;40065;49.894;10.358;2023-01-29T05:54:29;7.78;;;4.85;;
54157;SDS011;40065;49.894;10.358;2023-01-29T05:59:31;8.82;;;5.05;;
54157;SDS011;40065;49.894;10.358;2023-01-29T06:04:33;7.82;;;5.45;;
54157;SDS011;40065;49.894;10.358;2023-01-29T06:09:35;7.50;;;4.68;;
54157;SDS011;40065;49.894;10.358;2023-01-29T06:14:37;7.78;;;5.57;;
54157;SDS011;40065;49.894;10.358;2023-01-29T06:19:38;7.97;;;5.25;;
54157;SDS011;40065;49.894;10.358;2023-01-29T06:24:40;7.15;;;4.75;;
54157;SDS011;40065;49.894;10.358;2023-01-29T06:29:42;8.10;;;5.20;;
54157;SDS011;40065;49.894;10.358;2023-01-29T06:34:44;6.20;;;4.60;;
54157;SDS011;40065;49.894;10.358;2023-01-29T06:39:49;5.82;;;4.10;;
54157;SDS011;40065;49.894;10.358;2023-01-29T06:44:51;7.15;;;4.30;;
54157;SDS011;40065;49.894;10.358;2023-01-29T06:49:57;6.35;;;3.97;;
54157;SDS011;40065;49.894;10.358;2023-01-29T06:55:00;8.20;;;5.72;;
54157;SDS011;40065;49.894;10.358;2023-01-29T07:00:02;9.45;;;5.70;;
54157;SDS011;40065;49.894;10.358;2023-01-29T07:05:04;6.53;;;4.18;;
54157;SDS011;40065;49.894;10.358;2023-01-29T07:10:06;8.80;;;5.13;;
54157;SDS011;40065;49.894;10.358;2023-01-29T07:15:09;11.40;;;6.20;;
54157;SDS011;40065;49.894;10.358;2023-01-29T07:20:12;13.23;;;7.30;;
54157;SDS011;40065;49.894;10.358;2023-01-29T07:25:15;9.88;;;5.95;;
54157;SDS011;40065;49.894;10.358;2023-01-29T07:30:17;9.07;;;5.70;;
54157;SDS011;40065;49.894;10.358;2023-01-29T07:35:19;7.55;;;5.03;;
54157;SDS011;40065;49.894;10.358;2023-01-29T07:40:21;12.88;;;7.38;;
54157;SDS011;40065;49.894;10.358;2023-01-29T07:45:23;10.32;;;6.82;;
54157;SDS011;40065;49.894;10.358;2023-01-29T07:50:25;9.77;;;6.22;;
54157;SDS011;40065;49.894;10.358;2023-01-29T07:55:27;9.68;;;5.68;;
54157;SDS011;40065;49.894;10.358;2023-01-29T08:00:30;9.98;;;6.32;;
54157;SDS011;40065;49.894;10.358;2023-01-29T08:05:32;13.82;;;7.13;;
54157;SDS011;40065;49.894;10.358;2023-01-29T08:10:35;14.52;;;7.18;;
54157;SDS011;40065;49.894;10.358;2023-01-29T08:15:37;9.75;;;5.80;;
54157;SDS011;40065;49.894;10.358;2023-01-29T08:20:42;10.32;;;5.97;;
54157;SDS011;40065;49.894;10.358;2023-01-29T08:25:44;10.38;;;5.55;;
54157;SDS011;40065;49.894;10.358;2023-01-29T08:30:46;9.75;;;5.75;;
54157;SDS011;40065;49.894;10.358;2023-01-29T08:35:50;8.48;;;5.35;;
54157;SDS011;40065;49.894;10.358;2023-01-29T08:45:54;9.98;;;6.22;;
54157;SDS011;40065;49.894;10.358;2023-01-29T08:50:56;10.48;;;6.15;;
54157;SDS011;40065;49.894;10.358;2023-01-29T08:55:59;14.52;;;6.95;;
54157;SDS011;40065;49.894;10.358;2023-01-29T09:01:08;10.43;;;6.28;;
54157;SDS011;40065;49.894;10.358;2023-01-29T09:06:12;11.30;;;6.38;;
54157;SDS011;40065;49.894;10.358;2023-01-29T09:11:14;8.82;;;5.50;;
54157;SDS011;40065;49.894;10.358;2023-01-29T09:16:16;10.40;;;6.10;;
54157;SDS011;40065;49.894;10.358;2023-01-29T09:21:24;9.93;;;6.03;;
54157;SDS011;40065;49.894;10.358;2023-01-29T09:26:26;10.05;;;5.60;;
54157;SDS011;40065;49.894;10.358;2023-01-29T09:31:28;8.52;;;5.68;;
54157;SDS011;40065;49.894;10.358;2023-01-29T09:36:30;10.88;;;6.38;;
54157;SDS011;40065;49.894;10.358;2023-01-29T09:41:42;10.90;;;6.45;;
54157;SDS011;40065;49.894;10.358;2023-01-29T09:47:10;11.40;;;6.18;;
54157;SDS011;40065;49.894;10.358;2023-01-29T09:57:24;16.80;;;8.32;;
54157;SDS011;40065;49.894;10.358;2023-01-29T10:29:48;12.68;;;6.65;;
54157;SDS011;40065;49.894;10.358;2023-01-29T10:34:55;9.32;;;5.55;;
54157;SDS011;40065;49.894;10.358;2023-01-29T10:55:58;11.55;;;6.50;;
54157;SDS011;40065;49.894;10.358;2023-01-29T11:01:23;13.18;;;6.55;;
54157;SDS011;40065;49.894;10.358;2023-01-29T11:06:31;9.93;;;6.05;;
54157;SDS011;40065;49.894;10.358;2023-01-29T11:11:41;14.57;;;6.88;;
54157;SDS011;40065;49.894;10.358;2023-01-29T11:16:55;12.18;;;6.00;;
54157;SDS011;40065;49.894;10.358;2023-01-29T11:21:58;12.02;;;6.43;;
54157;SDS011;40065;49.894;10.358;2023-01-29T11:27:01;10.65;;;6.85;;
54157;SDS011;40065;49.894;10.358;2023-01-29T11:32:24;11.82;;;7.25;;
54157;SDS011;40065;49.894;10.358;2023-01-29T11:37:38;11.07;;;6.55;;
54157;SDS011;40065;49.894;10.358;2023-01-29T11:42:41;13.70;;;8.10;;
54157;SDS011;40065;49.894;10.358;2023-01-29T11:47:43;10.68;;;6.38;;
54157;SDS011;40065;49.894;10.358;2023-01-29T11:52:49;14.30;;;7.88;;
54157;SDS011;40065;49.894;10.358;2023-01-29T11:57:53;12.88;;;6.47;;
54157;SDS011;40065;49.894;10.358;2023-01-29T12:08:16;10.15;;;6.75;;
54157;SDS011;40065;49.894;10.358;2023-01-29T12:13:25;12.35;;;6.50;;
54157;SDS011;40065;49.894;10.358;2023-01-29T12:18:35;13.02;;;6.78;;
54157;SDS011;40065;49.894;10.358;2023-01-29T12:29:26;15.52;;;7.40;;
54157;SDS011;40065;49.894;10.358;2023-01-29T12:39:45;11.52;;;5.95;;
54157;SDS011;40065;49.894;10.358;2023-01-29T12:44:50;13.13;;;6.05;;
54157;SDS011;40065;49.894;10.358;2023-01-29T12:50:02;10.38;;;5.63;;
54157;SDS011;40065;49.894;10.358;2023-01-29T13:00:21;10.88;;;6.45;;
54157;SDS011;40065;49.894;10.358;2023-01-29T13:05:28;11.15;;;6.28;;
54157;SDS011;40065;49.894;10.358;2023-01-29T13:10:36;11.23;;;6.47;;
54157;SDS011;40065;49.894;10.358;2023-01-29T13:15:43;9.23;;;5.65;;
54157;SDS011;40065;49.894;10.358;2023-01-29T13:20:45;20.73;;;9.52;;
54157;SDS011;40065;49.894;10.358;2023-01-29T13:36:23;9.85;;;5.35;;
54157;SDS011;40065;49.894;10.358;2023-01-29T13:41:32;8.98;;;5.30;;
54157;SDS011;40065;49.894;10.358;2023-01-29T13:46:38;8.13;;;5.00;;
54157;SDS011;40065;49.894;10.358;2023-01-29T13:51:41;9.65;;;5.40;;
54157;SDS011;40065;49.894;10.358;2023-01-29T14:06:52;9.15;;;5.90;;
54157;SDS011;40065;49.894;10.358;2023-01-29T14:11:56;9.82;;;5.72;;
54157;SDS011;40065;49.894;10.358;2023-01-29T14:17:01;8.15;;;5.30;;
54157;SDS011;40065;49.894;10.358;2023-01-29T14:22:03;13.93;;;7.05;;
54157;SDS011;40065;49.894;10.358;2023-01-29T14:27:12;10.65;;;5.90;;
54157;SDS011;40065;49.894;10.358;2023-01-29T14:32:27;7.22;;;5.18;;
54157;SDS011;40065;49.894;10.358;2023-01-29T14:37:34;16.63;;;8.38;;
54157;SDS011;40065;49.894;10.358;2023-01-29T14:42:51;9.15;;;5.65;;
54157;SDS011;40065;49.894;10.358;2023-01-29T14:53:00;8.40;;;5.55;;
54157;SDS011;40065;49.894;10.358;2023-01-29T14:58:14;10.80;;;6.38;;
54157;SDS011;40065;49.894;10.358;2023-01-29T15:03:19;7.95;;;5.53;;
54157;SDS011;40065;49.894;10.358;2023-01-29T15:08:44;9.68;;;5.75;;
54157;SDS011;40065;49.894;10.358;2023-01-29T15:14:03;8.45;;;5.60;;
54157;SDS011;40065;49.894;10.358;2023-01-29T15:19:41;8.35;;;5.05;;
54157;SDS011;40065;49.894;10.358;2023-01-29T15:30:04;7.63;;;5.40;;
54157;SDS011;40065;49.894;10.358;2023-01-29T15:35:27;9.05;;;5.53;;
54157;SDS011;40065;49.894;10.358;2023-01-29T15:40:31;10.85;;;6.13;;
54157;SDS011;40065;49.894;10.358;2023-01-29T15:45:33;9.93;;;6.28;;
54157;SDS011;40065;49.894;10.358;2023-01-29T15:50:40;12.77;;;6.90;;
54157;SDS011;40065;49.894;10.358;2023-01-29T15:55:43;14.98;;;7.60;;
54157;SDS011;40065;49.894;10.358;2023-01-29T16:00:50;14.70;;;8.18;;
54157;SDS011;40065;49.894;10.358;2023-01-29T16:05:54;13.80;;;7.57;;
54157;SDS011;40065;49.894;10.358;2023-01-29T16:10:57;14.05;;;7.70;;
54157;SDS011;40065;49.894;10.358;2023-01-29T16:16:03;15.90;;;7.53;;
54157;SDS011;40065;49.894;10.358;2023-01-29T16:21:15;12.90;;;7.72;;
54157;SDS011;40065;49.894;10.358;2023-01-29T16:26:25;15.70;;;8.55;;
54157;SDS011;40065;49.894;10.358;2023-01-29T16:31:31;24.63;;;14.30;;
54157;SDS011;40065;49.894;10.358;2023-01-29T16:36:33;32.95;;;17.67;;
54157;SDS011;40065;49.894;10.358;2023-01-29T16:41:36;14.65;;;8.88;;
54157;SDS011;40065;49.894;10.358;2023-01-29T16:46:45;18.02;;;11.32;;
54157;SDS011;40065;49.894;10.358;2023-01-29T16:51:48;30.33;;;18.42;;
54157;SDS011;40065;49.894;10.358;2023-01-29T16:56:54;18.60;;;11.48;;
54157;SDS011;40065;49.894;10.358;2023-01-29T17:01:59;15.00;;;8.98;;
54157;SDS011;40065;49.894;10.358;2023-01-29T17:07:01;17.63;;;9.25;;
54157;SDS011;40065;49.894;10.358;2023-01-29T17:12:04;14.38;;;8.65;;
54157;SDS011;40065;49.894;10.358;2023-01-29T17:17:14;18.23;;;9.07;;
54157;SDS011;40065;49.894;10.358;2023-01-29T17:22:22;16.50;;;9.07;;
54157;SDS011;40065;49.894;10.358;2023-01-29T17:27:24;20.33;;;11.38;;
54157;SDS011;40065;49.894;10.358;2023-01-29T17:32:26;18.73;;;10.35;;
54157;SDS011;40065;49.894;10.358;2023-01-29T17:37:45;21.42;;;11.40;;
54157;SDS011;40065;49.894;10.358;2023-01-29T17:42:47;17.95;;;10.02;;
54157;SDS011;40065;49.894;10.358;2023-01-29T17:47:49;21.63;;;11.18;;
54157;SDS011;40065;49.894;10.358;2023-01-29T17:52:51;19.13;;;9.80;;
54157;SDS011;40065;49.894;10.358;2023-01-29T17:57:54;18.50;;;10.57;;
54157;SDS011;40065;49.894;10.358;2023-01-29T18:02:55;20.73;;;11.15;;
54157;SDS011;40065;49.894;10.358;2023-01-29T18:07:58;20.52;;;10.63;;
54157;SDS011;40065;49.894;10.358;2023-01-29T18:13:00;19.58;;;10.80;;
54157;SDS011;40065;49.894;10.358;2023-01-29T18:18:02;18.77;;;10.85;;
54157;SDS011;40065;49.894;10.358;2023-01-29T18:23:06;20.65;;;10.98;;
54157;SDS011;40065;49.894;10.358;2023-01-29T18:28:10;21.20;;;11.77;;
54157;SDS011;40065;49.894;10.358;2023-01-29T18:33:16;21.50;;;11.48;;
54157;SDS011;40065;49.894;10.358;2023-01-29T18:38:18;21.63;;;11.57;;
54157;SDS011;40065;49.894;10.358;2023-01-29T18:43:20;20.85;;;11.45;;
54157;SDS011;40065;49.894;10.358;2023-01-29T18:48:22;18.73;;;10.65;;
54157;SDS011;40065;49.894;10.358;2023-01-29T18:53:24;19.45;;;9.93;;
54157;SDS011;40065;49.894;10.358;2023-01-29T18:58:26;21.20;;;11.30;;
54157;SDS011;40065;49.894;10.358;2023-01-29T19:03:37;19.20;;;10.20;;
54157;SDS011;40065;49.894;10.358;2023-01-29T19:08:40;16.40;;;9.23;;
54157;SDS011;40065;49.894;10.358;2023-01-29T19:13:43;20.50;;;10.48;;
54157;SDS011;40065;49.894;10.358;2023-01-29T19:18:46;19.40;;;10.25;;
54157;SDS011;40065;49.894;10.358;2023-01-29T19:23:48;22.45;;;11.02;;
54157;SDS011;40065;49.894;10.358;2023-01-29T19:28:50;22.17;;;11.48;;
54157;SDS011;40065;49.894;10.358;2023-01-29T19:33:52;21.98;;;10.93;;
54157;SDS011;40065;49.894;10.358;2023-01-29T19:38:54;27.25;;;13.10;;
54157;SDS011;40065;49.894;10.358;2023-01-29T19:43:56;22.08;;;10.18;;
54157;SDS011;40065;49.894;10.358;2023-01-29T19:48:58;21.35;;;9.95;;
54157;SDS011;40065;49.894;10.358;2023-01-29T19:53:59;20.63;;;10.70;;
54157;SDS011;40065;49.894;10.358;2023-01-29T19:59:02;19.33;;;9.65;;
54157;SDS011;40065;49.894;10.358;2023-01-29T20:04:05;21.92;;;10.95;;
54157;SDS011;40065;49.894;10.358;2023-01-29T20:09:07;24.88;;;9.95;;
54157;SDS011;40065;49.894;10.358;2023-01-29T20:14:09;19.42;;;10.00;;
54157;SDS011;40065;49.894;10.358;2023-01-29T20:19:11;19.83;;;9.75;;
54157;SDS011;40065;49.894;10.358;2023-01-29T20:24:15;21.52;;;10.48;;
54157;SDS011;40065;49.894;10.358;2023-01-29T20:29:17;20.38;;;11.10;;
54157;SDS011;40065;49.894;10.358;2023-01-29T20:34:19;24.10;;;11.20;;
54157;SDS011;40065;49.894;10.358;2023-01-29T20:39:21;22.30;;;11.52;;
54157;SDS011;40065;49.894;10.358;2023-01-29T20:44:23;20.77;;;11.70;;
54157;SDS011;40065;49.894;10.358;2023-01-29T20:49:25;22.83;;;11.02;;
54157;SDS011;40065;49.894;10.358;2023-01-29T20:54:28;22.42;;;11.75;;
54157;SDS011;40065;49.894;10.358;2023-01-29T20:59:33;23.48;;;11.57;;
54157;SDS011;40065;49.894;10.358;2023-01-29T21:04:35;21.40;;;11.18;;
54157;SDS011;40065;49.894;10.358;2023-01-29T21:09:37;25.67;;;11.07;;
54157;SDS011;40065;49.894;10.358;2023-01-29T21:14:39;21.58;;;11.68;;
54157;SDS011;40065;49.894;10.358;2023-01-29T21:19:40;20.73;;;10.38;;
54157;SDS011;40065;49.894;10.358;2023-01-29T21:24:44;25.63;;;13.10;;
54157;SDS011;40065;49.894;10.358;2023-01-29T21:29:46;25.45;;;11.75;;
54157;SDS011;40065;49.894;10.358;2023-01-29T21:34:48;27.17;;;13.70;;
54157;SDS011;40065;49.894;10.358;2023-01-29T21:39:53;24.00;;;12.23;;
54157;SDS011;40065;49.894;10.358;2023-01-29T21:44:54;25.90;;;13.52;;
54157;SDS011;40065;49.894;10.358;2023-01-29T21:49:56;30.20;;;14.38;;
54157;SDS011;40065;49.894;10.358;2023-01-29T21:55:02;29.60;;;13.40;;
54157;SDS011;40065;49.894;10.358;2023-01-29T22:00:08;25.65;;;12.63;;
54157;SDS011;40065;49.894;10.358;2023-01-29T22:10:20;24.63;;;12.93;;
54157;SDS011;40065;49.894;10.358;2023-01-29T22:15:22;26.92;;;13.18;;
54157;SDS011;40065;49.894;10.358;2023-01-29T22:20:24;24.35;;;12.35;;
54157;SDS011;40065;49.894;10.358;2023-01-29T22:25:30;24.73;;;12.45;;
54157;SDS011;40065;49.894;10.358;2023-01-29T22:30:32;26.08;;;12.77;;
54157;SDS011;40065;49.894;10.358;2023-01-29T22:35:34;25.88;;;12.93;;
54157;SDS011;40065;49.894;10.358;2023-01-29T22:40:36;27.25;;;13.35;;
54157;SDS011;40065;49.894;10.358;2023-01-29T22:45:38;29.58;;;13.68;;
54157;SDS011;40065;49.894;10.358;2023-01-29T22:50:40;27.55;;;12.90;;
54157;SDS011;40065;49.894;10.358;2023-01-29T22:55:42;26.73;;;13.27;;
54157;SDS011;40065;49.894;10.358;2023-01-29T23:00:50;24.08;;;12.00;;
54157;SDS011;40065;49.894;10.358;2023-01-29T23:05:52;23.05;;;11.57;;
54157;SDS011;40065;49.894;10.358;2023-01-29T23:10:54;28.67;;;13.05;;
54157;SDS011;40065;49.894;10.358;2023-01-29T23:15:56;27.23;;;13.48;;
54157;SDS011;40065;49.894;10.358;2023-01-29T23:20:59;24.92;;;12.70;;
54157;SDS011;40065;49.894;10.358;2023-01-29T23:26:02;23.58;;;12.52;;
54157;SDS011;40065;49.894;10.358;2023-01-29T23:31:24;26.88;;;13.30;;
54157;SDS011;40065;49.894;10.358;2023-01-29T23:36:26;28.30;;;13.00;;
54157;SDS011;40065;49.894;10.358;2023-01-29T23:41:28;25.05;;;12.32;;
54157;SDS011;40065;49.894;10.358;2023-01-29T23:46:30;28.38;;;12.88;;
54157;SDS011;40065;49.894;10.358;2023-01-29T23:51:32;27.25;;;13.45;;
54157;SDS011;40065;49.894;10.358;2023-01-29T23:56:34;30.30;;;13.07;;
